createdAt,value
2018-08-17T00:00:49.605Z,21.83
2018-08-17T00:01:49.629Z,21.77
2018-08-17T00:02:49.655Z,21.74
2018-08-17T00:03:49.685Z,21.71
2018-08-17T00:04:49.703Z,21.73
2018-08-17T00:05:49.731Z,21.71
2018-08-17T00:06:49.753Z,21.64
2018-08-17T00:07:49.786Z,21.63
2018-08-17T00:08:49.814Z,21.66
2018-08-17T00:09:49.836Z,21.49
2018-08-17T00:10:49.865Z,21.46
2018-08-17T00:11:49.890Z,21.45
2018-08-17T00:12:49.911Z,21.51
2018-08-17T00:13:49.937Z,21.52
2018-08-17T00:14:49.965Z,21.53
2018-08-17T00:15:50.000Z,21.55
2018-08-17T00:16:50.019Z,21.49
2018-08-17T00:17:50.045Z,21.52
2018-08-17T00:18:50.072Z,21.56
2018-08-17T00:19:50.096Z,21.55
2018-08-17T00:20:50.320Z,21.49
2018-08-17T00:21:50.144Z,21.59
2018-08-17T00:22:50.170Z,21.55
2018-08-17T00:23:50.197Z,21.56
2018-08-17T00:24:50.231Z,21.56
2018-08-17T00:25:50.254Z,21.63
2018-08-17T00:26:50.278Z,21.63
2018-08-17T00:27:50.305Z,21.59
2018-08-17T00:28:50.332Z,21.49
2018-08-17T00:29:50.350Z,21.64
2018-08-17T00:30:50.380Z,21.55
2018-08-17T00:31:50.403Z,21.46
2018-08-17T00:32:50.432Z,21.49
2018-08-17T00:33:50.454Z,21.49
2018-08-17T00:34:50.488Z,21.49
2018-08-17T00:35:50.506Z,21.45
2018-08-17T00:36:50.537Z,21.48
2018-08-17T00:37:50.560Z,21.37
2018-08-17T00:38:50.587Z,21.45
2018-08-17T00:39:50.612Z,21.46
2018-08-17T00:40:50.636Z,21.49
2018-08-17T00:41:50.680Z,21.46
2018-08-17T00:42:50.688Z,21.49
2018-08-17T00:43:50.712Z,21.49
2018-08-17T00:44:50.742Z,21.37
2018-08-17T00:45:50.774Z,21.49
2018-08-17T00:46:50.790Z,21.43
2018-08-17T00:47:50.816Z,21.45
2018-08-17T00:48:50.848Z,21.48
2018-08-17T00:49:50.880Z,21.42
2018-08-17T00:50:50.894Z,21.42
2018-08-17T00:51:50.916Z,21.31
2018-08-17T00:52:50.949Z,21.34
2018-08-17T00:53:50.970Z,21.34
2018-08-17T00:54:50.996Z,21.26
2018-08-17T00:55:51.024Z,21.28
2018-08-17T00:57:51.078Z,21.33
2018-08-17T00:58:51.105Z,21.24
2018-08-17T00:59:51.126Z,21.24
2018-08-17T01:00:51.149Z,21.19
2018-08-17T01:01:51.184Z,21.27
2018-08-17T01:02:51.199Z,21.19
2018-08-17T01:03:51.224Z,21.16
2018-08-17T01:04:51.257Z,21.13
2018-08-17T01:05:51.276Z,21.16
2018-08-17T01:06:51.314Z,21.09
2018-08-17T01:07:51.334Z,21.03
2018-08-17T01:08:51.358Z,21.08
2018-08-17T01:09:51.382Z,21.13
2018-08-17T01:10:51.407Z,21.09
2018-08-17T01:11:51.435Z,21.12
2018-08-17T01:12:51.466Z,21.19
2018-08-17T01:13:51.485Z,21.06
2018-08-17T01:14:51.516Z,21.08
2018-08-17T01:15:51.532Z,21.09
2018-08-17T01:16:51.560Z,21.12
2018-08-17T01:17:51.587Z,21.13
2018-08-17T01:18:51.607Z,21.08
2018-08-17T01:19:51.636Z,21.05
2018-08-17T01:20:51.665Z,21.15
2018-08-17T01:21:51.691Z,21.06
2018-08-17T01:22:51.714Z,21.08
2018-08-17T01:23:51.739Z,21.00
2018-08-17T01:24:51.766Z,20.97
2018-08-17T01:25:51.787Z,20.93
2018-08-17T01:26:51.816Z,20.93
2018-08-17T01:27:51.845Z,20.90
2018-08-17T01:28:51.867Z,20.94
2018-08-17T01:29:51.894Z,21.00
2018-08-17T01:30:51.924Z,21.00
2018-08-17T01:31:51.945Z,21.08
2018-08-17T01:32:51.971Z,20.97
2018-08-17T01:33:51.996Z,20.96
2018-08-17T01:34:52.019Z,20.97
2018-08-17T01:35:52.046Z,20.98
2018-08-17T01:36:52.073Z,20.94
2018-08-17T01:37:52.099Z,20.88
2018-08-17T01:38:52.131Z,20.94
2018-08-17T01:39:52.153Z,20.94
2018-08-17T01:40:52.175Z,20.90
2018-08-17T01:41:52.201Z,20.91
2018-08-17T01:42:52.223Z,21.03
2018-08-17T01:43:52.250Z,20.97
2018-08-17T01:44:52.275Z,20.91
2018-08-17T01:45:52.307Z,20.91
2018-08-17T01:46:52.351Z,20.88
2018-08-17T01:47:52.349Z,20.90
2018-08-17T01:48:52.381Z,20.85
2018-08-17T01:49:52.405Z,20.93
2018-08-17T01:50:52.430Z,20.88
2018-08-17T01:51:52.456Z,20.82
2018-08-17T01:52:52.477Z,20.83
2018-08-17T01:53:52.503Z,20.85
2018-08-17T01:54:52.535Z,20.81
2018-08-17T01:55:52.551Z,20.87
2018-08-17T01:56:52.580Z,20.81
2018-08-17T01:57:52.603Z,20.81
2018-08-17T01:58:52.629Z,20.87
2018-08-17T01:59:52.659Z,20.83
2018-08-17T02:00:52.683Z,20.87
2018-08-17T02:01:52.705Z,20.83
2018-08-17T02:02:52.736Z,20.81
2018-08-17T02:03:52.755Z,20.79
2018-08-17T02:04:52.785Z,20.83
2018-08-17T02:05:52.812Z,20.78
2018-08-17T02:06:52.832Z,20.81
2018-08-17T02:07:52.862Z,20.79
2018-08-17T02:08:52.893Z,20.79
2018-08-17T02:09:52.916Z,20.85
2018-08-17T02:10:52.937Z,20.82
2018-08-17T02:11:52.960Z,20.78
2018-08-17T02:12:52.981Z,20.76
2018-08-17T02:13:53.012Z,20.83
2018-08-17T02:14:53.037Z,20.76
2018-08-17T02:15:53.062Z,20.73
2018-08-17T02:16:53.094Z,20.76
2018-08-17T02:17:53.111Z,20.83
2018-08-17T02:18:53.138Z,20.79
2018-08-17T02:19:53.165Z,20.79
2018-08-17T02:20:53.198Z,20.81
2018-08-17T02:21:53.213Z,20.71
2018-08-17T02:22:53.238Z,20.73
2018-08-17T02:23:53.260Z,20.71
2018-08-17T02:24:53.294Z,20.75
2018-08-17T02:25:53.316Z,20.69
2018-08-17T02:26:53.345Z,20.75
2018-08-17T02:27:53.366Z,20.71
2018-08-17T02:28:53.393Z,20.60
2018-08-17T02:29:53.420Z,20.60
2018-08-17T02:30:53.441Z,20.51
2018-08-17T02:31:53.472Z,20.53
2018-08-17T02:32:53.489Z,20.35
2018-08-17T02:33:53.519Z,20.26
2018-08-17T02:34:53.548Z,20.23
2018-08-17T02:35:53.566Z,20.16
2018-08-17T02:36:53.594Z,20.23
2018-08-17T02:37:53.621Z,20.20
2018-08-17T02:38:53.639Z,20.20
2018-08-17T02:39:53.671Z,20.20
2018-08-17T02:40:53.693Z,20.12
2018-08-17T02:41:53.722Z,20.22
2018-08-17T02:42:53.739Z,20.20
2018-08-17T02:43:53.766Z,20.26
2018-08-17T02:44:53.792Z,20.23
2018-08-17T02:45:53.816Z,20.27
2018-08-17T02:46:53.843Z,20.33
2018-08-17T02:47:53.880Z,20.20
2018-08-17T02:48:53.894Z,20.23
2018-08-17T02:49:53.924Z,20.19
2018-08-17T02:50:53.952Z,20.08
2018-08-17T02:51:53.968Z,20.07
2018-08-17T02:52:53.992Z,20.12
2018-08-17T02:53:54.024Z,20.07
2018-08-17T02:54:54.046Z,20.10
2018-08-17T02:55:54.069Z,20.10
2018-08-17T02:56:54.097Z,20.26
2018-08-17T02:57:54.126Z,20.16
2018-08-17T02:58:54.148Z,20.17
2018-08-17T02:59:54.172Z,20.22
2018-08-17T03:00:54.196Z,20.23
2018-08-17T03:01:54.224Z,20.31
2018-08-17T03:02:54.246Z,20.30
2018-08-17T03:03:54.276Z,20.30
2018-08-17T03:04:54.304Z,20.27
2018-08-17T03:05:54.328Z,20.34
2018-08-17T03:06:54.348Z,20.37
2018-08-17T03:07:54.372Z,20.25
2018-08-17T03:08:54.405Z,20.38
2018-08-17T03:09:54.433Z,20.31
2018-08-17T03:10:54.448Z,20.40
2018-08-17T03:11:54.476Z,20.37
2018-08-17T03:12:54.504Z,20.31
2018-08-17T03:13:54.529Z,20.37
2018-08-17T03:14:54.554Z,20.35
2018-08-17T03:15:54.576Z,20.40
2018-08-17T03:16:54.603Z,20.35
2018-08-17T03:17:54.629Z,20.35
2018-08-17T03:18:54.660Z,20.26
2018-08-17T03:19:54.677Z,20.30
2018-08-17T03:20:54.703Z,20.27
2018-08-17T03:21:54.734Z,20.27
2018-08-17T03:22:54.749Z,20.31
2018-08-17T03:23:54.777Z,20.34
2018-08-17T03:24:54.799Z,20.38
2018-08-17T03:25:54.826Z,20.38
2018-08-17T03:26:54.853Z,20.26
2018-08-17T03:27:54.881Z,20.37
2018-08-17T03:28:54.905Z,20.25
2018-08-17T03:29:54.930Z,20.40
2018-08-17T03:30:54.954Z,20.34
2018-08-17T03:31:54.977Z,20.30
2018-08-17T03:32:55.007Z,20.31
2018-08-17T03:33:55.031Z,20.26
2018-08-17T03:34:55.054Z,20.33
2018-08-17T03:35:55.085Z,20.23
2018-08-17T03:36:55.105Z,20.23
2018-08-17T03:37:55.144Z,20.26
2018-08-17T03:38:55.161Z,20.26
2018-08-17T03:39:55.179Z,20.33
2018-08-17T03:40:55.204Z,20.30
2018-08-17T03:41:55.233Z,20.26
2018-08-17T03:42:55.254Z,20.22
2018-08-17T03:43:55.279Z,20.26
2018-08-17T03:44:55.303Z,20.23
2018-08-17T03:45:55.328Z,20.26
2018-08-17T03:46:55.353Z,20.23
2018-08-17T03:47:55.376Z,20.22
2018-08-17T03:48:55.408Z,20.20
2018-08-17T03:49:55.430Z,20.20
2018-08-17T03:50:55.458Z,20.19
2018-08-17T03:51:55.491Z,20.16
2018-08-17T03:52:55.504Z,20.17
2018-08-17T03:53:55.529Z,20.17
2018-08-17T03:54:55.550Z,20.20
2018-08-17T03:55:55.580Z,20.20
2018-08-17T03:56:55.602Z,20.22
2018-08-17T03:57:55.628Z,20.08
2018-08-17T03:58:55.660Z,20.12
2018-08-17T03:59:55.680Z,20.22
2018-08-17T04:00:55.703Z,20.12
2018-08-17T04:01:55.728Z,20.22
2018-08-17T04:02:55.753Z,20.19
2018-08-17T04:03:55.788Z,20.08
2018-08-17T04:04:55.804Z,20.16
2018-08-17T04:05:55.827Z,20.08
2018-08-17T04:06:55.856Z,20.17
2018-08-17T04:07:55.877Z,20.16
2018-08-17T04:08:55.902Z,20.13
2018-08-17T04:09:55.930Z,20.12
2018-08-17T04:10:55.956Z,20.22
2018-08-17T04:11:55.980Z,20.15
2018-08-17T04:12:56.004Z,20.17
2018-08-17T04:13:56.032Z,20.17
2018-08-17T04:14:56.058Z,20.16
2018-08-17T04:15:56.077Z,20.16
2018-08-17T04:16:56.104Z,20.10
2018-08-17T04:17:56.128Z,20.12
2018-08-17T04:18:56.158Z,20.08
2018-08-17T04:19:56.180Z,20.16
2018-08-17T04:20:56.204Z,20.12
2018-08-17T04:21:56.235Z,20.10
2018-08-17T04:22:56.256Z,20.19
2018-08-17T04:23:56.429Z,20.22
2018-08-17T04:24:56.300Z,20.17
2018-08-17T04:25:56.332Z,20.22
2018-08-17T04:26:56.355Z,20.22
2018-08-17T04:27:56.378Z,20.16
2018-08-17T04:28:56.405Z,20.16
2018-08-17T04:29:56.441Z,20.15
2018-08-17T04:30:56.449Z,20.19
2018-08-17T04:31:56.480Z,20.13
2018-08-17T04:32:56.511Z,20.16
2018-08-17T04:33:56.529Z,20.13
2018-08-17T04:34:56.549Z,20.16
2018-08-17T04:35:56.582Z,20.13
2018-08-17T04:36:56.612Z,20.22
2018-08-17T04:37:56.628Z,20.17
2018-08-17T04:38:56.653Z,20.16
2018-08-17T04:39:56.679Z,20.17
2018-08-17T04:40:56.712Z,20.22
2018-08-17T04:41:56.730Z,20.16
2018-08-17T04:42:56.746Z,20.15
2018-08-17T04:43:56.785Z,20.17
2018-08-17T04:44:56.803Z,20.07
2018-08-17T04:45:56.832Z,20.05
2018-08-17T04:46:56.852Z,20.08
2018-08-17T04:47:56.878Z,20.12
2018-08-17T04:48:56.903Z,20.13
2018-08-17T04:49:56.925Z,20.10
2018-08-17T04:50:56.958Z,20.08
2018-08-17T04:51:56.981Z,20.13
2018-08-17T04:52:57.005Z,20.08
2018-08-17T04:53:57.035Z,20.08
2018-08-17T04:54:57.062Z,20.07
2018-08-17T04:55:57.079Z,20.07
2018-08-17T04:56:57.106Z,20.02
2018-08-17T04:57:57.136Z,20.04
2018-08-17T04:58:57.154Z,20.04
2018-08-17T04:59:57.176Z,20.12
2018-08-17T05:00:57.202Z,20.05
2018-08-17T05:01:57.227Z,20.07
2018-08-17T05:02:57.459Z,20.10
2018-08-17T05:03:57.276Z,20.13
2018-08-17T05:04:57.310Z,20.10
2018-08-17T05:05:57.329Z,20.15
2018-08-17T05:06:57.358Z,20.13
2018-08-17T05:07:57.376Z,20.15
2018-08-17T05:08:57.422Z,20.23
2018-08-17T05:09:57.426Z,20.30
2018-08-17T05:10:57.458Z,20.26
2018-08-17T05:11:57.478Z,20.25
2018-08-17T05:12:57.500Z,20.37
2018-08-17T05:13:57.538Z,20.35
2018-08-17T05:14:57.555Z,20.46
2018-08-17T05:15:57.579Z,20.50
2018-08-17T05:16:57.601Z,20.53
2018-08-17T05:17:57.627Z,20.48
2018-08-17T05:18:57.653Z,20.48
2018-08-17T05:19:57.678Z,20.60
2018-08-17T05:20:57.707Z,20.60
2018-08-17T05:21:57.734Z,20.63
2018-08-17T05:22:57.760Z,20.68
2018-08-17T05:23:57.781Z,20.72
2018-08-17T05:24:57.806Z,20.69
2018-08-17T05:25:57.832Z,20.75
2018-08-17T05:26:57.856Z,20.85
2018-08-17T05:27:57.885Z,20.83
2018-08-17T05:28:57.905Z,20.82
2018-08-17T05:29:57.936Z,20.87
2018-08-17T05:30:57.961Z,20.88
2018-08-17T05:31:57.980Z,20.83
2018-08-17T05:32:58.008Z,20.97
2018-08-17T05:33:58.042Z,20.83
2018-08-17T05:34:58.057Z,20.82
2018-08-17T05:35:58.095Z,20.87
2018-08-17T05:36:58.112Z,20.87
2018-08-17T05:37:58.143Z,20.87
2018-08-17T05:38:58.162Z,20.91
2018-08-17T05:39:58.189Z,20.97
2018-08-17T05:40:58.221Z,20.97
2018-08-17T05:41:58.234Z,20.96
2018-08-17T05:42:58.260Z,20.96
2018-08-17T05:43:58.291Z,20.94
2018-08-17T05:44:58.344Z,20.93
2018-08-17T05:45:58.337Z,20.91
2018-08-17T05:46:58.365Z,20.96
2018-08-17T05:47:58.386Z,21.08
2018-08-17T05:48:58.417Z,21.18
2018-08-17T05:49:58.444Z,21.11
2018-08-17T05:50:58.476Z,21.06
2018-08-17T05:51:58.494Z,21.06
2018-08-17T05:52:58.514Z,21.09
2018-08-17T05:53:58.545Z,21.09
2018-08-17T05:54:58.567Z,21.09
2018-08-17T05:55:58.596Z,21.08
2018-08-17T05:56:58.629Z,21.18
2018-08-17T05:57:58.657Z,21.24
2018-08-17T05:58:58.670Z,21.30
2018-08-17T05:59:58.696Z,21.31
2018-08-17T06:00:58.722Z,21.12
2018-08-17T06:01:58.751Z,21.26
2018-08-17T06:02:58.800Z,21.30
2018-08-17T06:03:58.795Z,21.33
2018-08-17T06:04:58.827Z,21.46
2018-08-17T06:05:58.865Z,21.48
2018-08-17T06:06:58.879Z,21.49
2018-08-17T06:07:58.901Z,21.49
2018-08-17T06:08:58.924Z,21.52
2018-08-17T06:09:58.956Z,21.56
2018-08-17T06:10:59.011Z,21.63
2018-08-17T06:11:59.005Z,21.67
2018-08-17T06:12:59.031Z,21.77
2018-08-17T06:13:59.058Z,21.81
2018-08-17T06:14:59.083Z,21.68
2018-08-17T06:15:59.107Z,21.64
2018-08-17T06:16:59.138Z,21.71
2018-08-17T06:17:59.161Z,21.81
2018-08-17T06:18:59.182Z,21.77
2018-08-17T06:19:59.208Z,21.81
2018-08-17T06:20:59.234Z,21.77
2018-08-17T06:21:59.269Z,21.82
2018-08-17T06:22:59.288Z,21.85
2018-08-17T06:23:59.317Z,21.82
2018-08-17T06:24:59.347Z,21.86
2018-08-17T06:25:59.370Z,21.90
2018-08-17T06:26:59.396Z,21.94
2018-08-17T06:27:59.419Z,21.81
2018-08-17T06:28:59.448Z,21.82
2018-08-17T06:29:59.469Z,21.90
2018-08-17T06:30:59.495Z,21.98
2018-08-17T06:31:59.523Z,21.85
2018-08-17T06:32:59.557Z,21.99
2018-08-17T06:33:59.578Z,21.89
2018-08-17T06:34:59.607Z,21.96
2018-08-17T06:35:59.644Z,21.85
2018-08-17T06:36:59.656Z,21.90
2018-08-17T06:37:59.685Z,22.04
2018-08-17T06:38:59.708Z,22.09
2018-08-17T06:39:59.736Z,22.19
2018-08-17T06:40:59.763Z,22.26
2018-08-17T06:41:59.795Z,22.35
2018-08-17T06:42:59.808Z,22.36
2018-08-17T06:43:59.841Z,22.42
2018-08-17T06:44:59.865Z,22.33
2018-08-17T06:45:59.892Z,22.30
2018-08-17T06:46:59.920Z,22.35
2018-08-17T06:47:59.941Z,22.30
2018-08-17T06:48:59.968Z,22.38
2018-08-17T06:49:59.997Z,22.38
2018-08-17T06:51:00.227Z,22.33
2018-08-17T06:52:00.052Z,22.39
2018-08-17T06:53:00.075Z,22.49
2018-08-17T06:54:00.099Z,22.49
2018-08-17T06:55:00.126Z,22.52
2018-08-17T06:56:00.155Z,22.56
2018-08-17T06:57:00.204Z,22.54
2018-08-17T06:58:00.213Z,22.56
2018-08-17T06:59:00.235Z,22.57
2018-08-17T07:00:00.262Z,22.54
2018-08-17T07:01:00.290Z,22.59
2018-08-17T07:02:00.313Z,22.57
2018-08-17T07:03:00.338Z,22.63
2018-08-17T07:04:00.366Z,22.61
2018-08-17T07:05:00.391Z,22.72
2018-08-17T07:06:00.416Z,22.70
2018-08-17T07:07:00.456Z,22.74
2018-08-17T07:08:00.472Z,22.75
2018-08-17T07:09:00.574Z,22.82
2018-08-17T07:10:00.528Z,22.93
2018-08-17T07:11:00.551Z,22.96
2018-08-17T07:12:00.575Z,23.00
2018-08-17T07:13:00.605Z,23.03
2018-08-17T07:14:00.631Z,23.12
2018-08-17T07:15:00.663Z,23.03
2018-08-17T07:16:00.687Z,23.03
2018-08-17T07:17:00.710Z,23.01
2018-08-17T07:18:00.741Z,22.94
2018-08-17T07:19:00.761Z,23.00
2018-08-17T07:20:00.791Z,22.85
2018-08-17T07:21:00.825Z,22.96
2018-08-17T07:22:00.842Z,22.94
2018-08-17T07:23:00.873Z,23.07
2018-08-17T07:24:00.899Z,23.09
2018-08-17T07:25:00.924Z,23.04
2018-08-17T07:26:00.951Z,23.07
2018-08-17T07:27:00.979Z,23.09
2018-08-17T07:28:01.037Z,23.11
2018-08-17T07:29:01.031Z,23.14
2018-08-17T07:30:01.069Z,23.09
2018-08-17T07:31:01.090Z,23.14
2018-08-17T07:32:01.112Z,23.21
2018-08-17T07:33:01.144Z,23.35
2018-08-17T07:34:01.177Z,23.15
2018-08-17T07:35:01.192Z,23.15
2018-08-17T07:36:01.224Z,23.22
2018-08-17T07:37:01.252Z,23.14
2018-08-17T07:38:01.277Z,23.11
2018-08-17T07:39:01.302Z,23.22
2018-08-17T07:40:01.328Z,23.22
2018-08-17T07:41:01.358Z,23.26
2018-08-17T07:42:01.389Z,23.07
2018-08-17T07:43:01.409Z,23.04
2018-08-17T07:44:01.438Z,23.06
2018-08-17T07:45:01.471Z,23.00
2018-08-17T07:46:01.491Z,22.99
2018-08-17T07:47:01.519Z,22.96
2018-08-17T07:48:01.684Z,22.85
2018-08-17T07:49:01.580Z,22.76
2018-08-17T07:50:01.601Z,22.72
2018-08-17T07:51:01.626Z,22.74
2018-08-17T07:52:01.653Z,22.72
2018-08-17T07:53:01.680Z,22.63
2018-08-17T07:54:01.708Z,22.49
2018-08-17T07:55:01.732Z,22.51
2018-08-17T07:56:01.769Z,22.56
2018-08-17T07:57:01.788Z,22.56
2018-08-17T07:58:01.816Z,22.57
2018-08-17T07:59:01.855Z,22.75
2018-08-17T08:00:01.874Z,22.85
2018-08-17T08:01:01.902Z,22.84
2018-08-17T08:02:01.920Z,22.96
2018-08-17T08:03:01.952Z,22.93
2018-08-17T08:04:01.976Z,22.96
2018-08-17T08:05:02.011Z,23.09
2018-08-17T08:06:02.035Z,23.12
2018-08-17T08:07:02.056Z,23.19
2018-08-17T08:08:02.095Z,23.37
2018-08-17T08:09:02.117Z,23.31
2018-08-17T08:10:02.189Z,23.34
2018-08-17T08:11:02.178Z,23.47
2018-08-17T08:12:02.190Z,23.47
2018-08-17T08:13:02.220Z,23.54
2018-08-17T08:14:02.244Z,23.50
2018-08-17T08:15:02.275Z,23.54
2018-08-17T08:16:02.301Z,23.67
2018-08-17T08:17:02.332Z,23.62
2018-08-17T08:18:02.357Z,23.63
2018-08-17T08:19:02.382Z,23.63
2018-08-17T08:20:02.406Z,23.81
2018-08-17T08:21:02.439Z,23.78
2018-08-17T08:22:02.464Z,23.87
2018-08-17T08:23:02.490Z,24.11
2018-08-17T08:24:02.525Z,24.14
2018-08-17T08:25:02.550Z,24.23
2018-08-17T08:26:02.618Z,24.33
2018-08-17T08:27:02.602Z,24.42
2018-08-17T08:28:02.633Z,24.55
2018-08-17T08:29:02.651Z,24.53
2018-08-17T08:30:02.684Z,24.59
2018-08-17T08:31:02.705Z,24.68
2018-08-17T08:32:02.735Z,24.70
2018-08-17T08:33:02.767Z,24.86
2018-08-17T08:34:02.792Z,24.86
2018-08-17T08:35:02.820Z,25.02
2018-08-17T08:36:02.848Z,25.05
2018-08-17T08:37:02.878Z,25.09
2018-08-17T08:38:02.899Z,24.99
2018-08-17T08:39:02.931Z,25.04
2018-08-17T08:40:02.962Z,25.07
2018-08-17T08:41:02.987Z,24.90
2018-08-17T08:42:03.011Z,25.11
2018-08-17T08:43:03.040Z,25.05
2018-08-17T08:44:03.070Z,24.89
2018-08-17T08:45:03.100Z,24.83
2018-08-17T08:46:03.171Z,24.68
2018-08-17T08:47:03.149Z,24.70
2018-08-17T08:48:03.178Z,24.79
2018-08-17T08:49:03.211Z,24.53
2018-08-17T08:50:03.240Z,24.59
2018-08-17T08:51:03.259Z,24.42
2018-08-17T08:52:03.306Z,24.46
2018-08-17T08:53:03.521Z,24.21
2018-08-17T08:54:03.347Z,24.33
2018-08-17T08:55:03.376Z,24.41
2018-08-17T08:56:03.432Z,24.42
2018-08-17T08:57:03.429Z,24.34
2018-08-17T08:58:03.464Z,24.44
2018-08-17T08:59:03.486Z,24.59
2018-08-17T09:00:03.513Z,24.68
2018-08-17T09:01:03.552Z,24.64
2018-08-17T09:02:03.574Z,24.68
2018-08-17T09:03:03.601Z,24.66
2018-08-17T09:04:03.628Z,24.66
2018-08-17T09:05:03.657Z,24.77
2018-08-17T09:06:03.685Z,24.79
2018-08-17T09:07:03.711Z,24.64
2018-08-17T09:08:03.744Z,24.55
2018-08-17T09:09:03.766Z,24.60
2018-08-17T09:10:03.794Z,24.83
2018-08-17T09:11:03.821Z,24.74
2018-08-17T09:12:03.853Z,24.79
2018-08-17T09:13:03.880Z,24.79
2018-08-17T09:14:03.911Z,24.84
2018-08-17T09:15:03.932Z,24.74
2018-08-17T09:16:03.967Z,24.67
2018-08-17T09:17:04.001Z,24.60
2018-08-17T09:18:04.023Z,24.33
2018-08-17T09:19:04.048Z,24.30
2018-08-17T09:20:04.073Z,24.12
2018-08-17T09:21:04.105Z,24.11
2018-08-17T09:22:04.141Z,23.97
2018-08-17T09:23:04.160Z,23.97
2018-08-17T09:24:04.188Z,23.84
2018-08-17T09:25:04.212Z,23.84
2018-08-17T09:26:04.245Z,23.75
2018-08-17T09:27:04.267Z,23.63
2018-08-17T09:28:04.299Z,23.75
2018-08-17T09:29:04.361Z,23.87
2018-08-17T09:30:04.421Z,24.05
2018-08-17T09:31:04.385Z,24.16
2018-08-17T09:32:04.411Z,24.23
2018-08-17T09:33:04.437Z,24.41
2018-08-17T09:34:04.469Z,24.41
2018-08-17T09:35:04.493Z,24.36
2018-08-17T09:36:04.627Z,24.37
2018-08-17T09:37:04.557Z,24.18
2018-08-17T09:38:04.581Z,24.04
2018-08-17T09:39:04.603Z,24.09
2018-08-17T09:40:04.633Z,24.18
2018-08-17T09:41:04.664Z,23.93
2018-08-17T09:42:04.715Z,23.97
2018-08-17T09:43:04.713Z,23.93
2018-08-17T09:44:04.743Z,24.00
2018-08-17T09:45:04.768Z,23.79
2018-08-17T09:46:04.797Z,23.62
2018-08-17T09:47:04.829Z,23.52
2018-08-17T09:48:04.854Z,23.44
2018-08-17T09:49:04.881Z,23.31
2018-08-17T09:50:04.909Z,23.23
2018-08-17T09:51:04.957Z,23.22
2018-08-17T09:52:04.962Z,23.14
2018-08-17T09:53:04.996Z,22.97
2018-08-17T09:54:05.016Z,22.85
2018-08-17T09:55:05.043Z,22.74
2018-08-17T09:56:05.072Z,22.64
2018-08-17T09:57:05.099Z,22.61
2018-08-17T09:58:05.136Z,22.60
2018-08-17T09:59:05.154Z,22.63
2018-08-17T10:00:05.177Z,22.64
2018-08-17T10:01:05.211Z,22.74
2018-08-17T10:02:05.233Z,22.79
2018-08-17T10:03:05.273Z,22.91
2018-08-17T10:04:05.375Z,23.00
2018-08-17T10:05:05.319Z,22.94
2018-08-17T10:06:05.342Z,22.96
2018-08-17T10:07:05.371Z,23.04
2018-08-17T10:08:05.399Z,23.07
2018-08-17T10:09:05.423Z,23.12
2018-08-17T10:10:05.446Z,23.15
2018-08-17T10:11:05.478Z,23.16
2018-08-17T10:12:05.505Z,23.22
2018-08-17T10:13:05.530Z,23.53
2018-08-17T10:14:05.562Z,23.57
2018-08-17T10:15:05.587Z,23.62
2018-08-17T10:16:05.608Z,23.63
2018-08-17T10:17:05.641Z,23.49
2018-08-17T10:18:05.670Z,23.23
2018-08-17T10:19:05.699Z,23.21
2018-08-17T10:20:05.727Z,23.18
2018-08-17T10:21:05.958Z,23.14
2018-08-17T10:22:06.029Z,22.99
2018-08-17T10:23:05.798Z,23.09
2018-08-17T10:24:05.827Z,23.15
2018-08-17T10:25:05.861Z,22.96
2018-08-17T10:26:05.893Z,22.97
2018-08-17T10:27:05.922Z,22.88
2018-08-17T10:28:05.937Z,22.74
2018-08-17T10:29:05.969Z,22.74
2018-08-17T10:30:05.991Z,22.67
2018-08-17T10:31:06.016Z,22.75
2018-08-17T10:32:06.040Z,22.72
2018-08-17T10:33:06.071Z,22.67
2018-08-17T10:34:06.156Z,22.78
2018-08-17T10:35:06.132Z,22.79
2018-08-17T10:36:06.151Z,22.69
2018-08-17T10:37:06.176Z,22.70
2018-08-17T10:38:06.207Z,22.74
2018-08-17T10:39:06.237Z,22.70
2018-08-17T10:40:06.265Z,22.64
2018-08-17T10:41:06.288Z,22.82
2018-08-17T10:42:06.317Z,22.91
2018-08-17T10:43:06.343Z,23.06
2018-08-17T10:44:06.374Z,23.19
2018-08-17T10:45:06.401Z,23.44
2018-08-17T10:46:06.427Z,23.77
2018-08-17T10:47:06.453Z,23.87
2018-08-17T10:48:06.477Z,23.75
2018-08-17T10:49:06.566Z,23.57
2018-08-17T10:50:06.538Z,23.63
2018-08-17T10:51:06.560Z,23.57
2018-08-17T10:52:06.591Z,23.74
2018-08-17T10:53:06.615Z,23.90
2018-08-17T10:54:06.642Z,23.87
2018-08-17T10:55:06.669Z,23.81
2018-08-17T10:56:06.697Z,23.54
2018-08-17T10:57:06.729Z,23.57
2018-08-17T10:58:06.749Z,23.41
2018-08-17T10:59:06.779Z,23.29
2018-08-17T11:00:06.807Z,23.14
2018-08-17T11:01:06.842Z,23.09
2018-08-17T11:02:06.865Z,22.85
2018-08-17T11:03:06.898Z,22.33
2018-08-17T11:04:06.918Z,22.11
2018-08-17T11:05:06.946Z,22.15
2018-08-17T11:06:06.975Z,22.12
2018-08-17T11:07:07.001Z,22.11
2018-08-17T11:08:07.026Z,22.12
2018-08-17T11:09:07.056Z,21.89
2018-08-17T11:10:07.079Z,21.86
2018-08-17T11:11:07.177Z,21.91
2018-08-17T11:12:07.133Z,21.83
2018-08-17T11:13:07.163Z,21.71
2018-08-17T11:14:07.193Z,21.55
2018-08-17T11:15:07.217Z,21.73
2018-08-17T11:16:07.241Z,21.81
2018-08-17T11:17:07.292Z,21.89
2018-08-17T11:18:07.305Z,21.82
2018-08-17T11:19:07.325Z,22.05
2018-08-17T11:20:07.353Z,22.04
2018-08-17T11:21:07.376Z,21.90
2018-08-17T11:22:07.401Z,21.83
2018-08-17T11:23:07.429Z,21.68
2018-08-17T11:24:07.456Z,21.63
2018-08-17T11:25:07.484Z,21.63
2018-08-17T11:26:07.510Z,21.68
2018-08-17T11:27:07.531Z,21.46
2018-08-17T11:28:07.563Z,21.43
2018-08-17T11:29:07.592Z,21.16
2018-08-17T11:30:07.652Z,21.15
2018-08-17T11:31:07.637Z,21.18
2018-08-17T11:32:07.675Z,21.09
2018-08-17T11:33:07.688Z,21.11
2018-08-17T11:34:07.713Z,20.94
2018-08-17T11:35:07.743Z,20.81
2018-08-17T11:36:07.771Z,20.72
2018-08-17T11:37:07.794Z,20.53
2018-08-17T11:38:07.821Z,20.54
2018-08-17T11:39:07.847Z,20.58
2018-08-17T11:40:07.875Z,20.54
2018-08-17T11:41:07.897Z,20.57
2018-08-17T11:42:07.923Z,20.66
2018-08-17T11:43:07.946Z,20.75
2018-08-17T11:44:07.978Z,20.82
2018-08-17T11:45:08.005Z,20.90
2018-08-17T11:46:08.025Z,21.05
2018-08-17T11:47:08.062Z,21.21
2018-08-17T11:48:08.077Z,21.28
2018-08-17T11:49:08.105Z,21.45
2018-08-17T11:50:08.131Z,21.71
2018-08-17T11:51:08.157Z,22.09
2018-08-17T11:52:08.183Z,22.48
2018-08-17T11:53:08.213Z,22.52
2018-08-17T11:54:08.238Z,22.57
2018-08-17T11:55:08.263Z,22.49
2018-08-17T11:56:08.287Z,22.48
2018-08-17T11:57:08.316Z,22.46
2018-08-17T11:58:08.337Z,22.49
2018-08-17T11:59:08.366Z,22.45
2018-08-17T12:00:08.391Z,22.42
2018-08-17T12:01:08.446Z,22.27
2018-08-17T12:02:08.437Z,22.39
2018-08-17T12:03:08.468Z,22.39
2018-08-17T12:04:08.491Z,22.54
2018-08-17T12:05:08.523Z,22.66
2018-08-17T12:06:08.546Z,22.75
2018-08-17T12:07:08.571Z,22.91
2018-08-17T12:08:08.640Z,23.01
2018-08-17T12:09:08.621Z,23.14
2018-08-17T12:10:08.653Z,23.23
2018-08-17T12:11:08.679Z,23.22
2018-08-17T12:12:08.703Z,23.31
2018-08-17T12:13:08.736Z,23.25
2018-08-17T12:14:08.753Z,23.19
2018-08-17T12:15:08.780Z,23.15
2018-08-17T12:16:08.812Z,23.34
2018-08-17T12:17:08.832Z,23.37
2018-08-17T12:18:08.862Z,23.68
2018-08-17T12:19:08.889Z,23.84
2018-08-17T12:20:08.918Z,24.09
2018-08-17T12:21:08.943Z,24.27
2018-08-17T12:22:08.962Z,24.15
2018-08-17T12:23:08.994Z,24.26
2018-08-17T12:24:09.039Z,24.61
2018-08-17T12:25:09.210Z,24.67
2018-08-17T12:26:09.073Z,25.22
2018-08-17T12:27:09.107Z,25.57
2018-08-17T12:28:09.133Z,25.94
2018-08-17T12:29:09.158Z,26.39
2018-08-17T12:30:09.185Z,26.97
2018-08-17T12:31:09.214Z,27.25
2018-08-17T12:32:09.281Z,26.84
2018-08-17T12:33:09.270Z,26.98
2018-08-17T12:34:09.305Z,27.03
2018-08-17T12:35:09.330Z,26.78
2018-08-17T12:36:09.365Z,26.75
2018-08-17T12:37:10.807Z,27.11
2018-08-17T12:38:09.426Z,27.05
2018-08-17T12:39:09.452Z,27.01
2018-08-17T12:40:09.506Z,27.16
2018-08-17T12:41:09.514Z,27.27
2018-08-17T12:42:09.547Z,27.58
2018-08-17T12:43:09.569Z,27.58
2018-08-17T12:44:09.597Z,27.33
2018-08-17T12:45:09.629Z,27.35
2018-08-17T12:46:09.667Z,27.28
2018-08-17T12:47:09.686Z,28.21
2018-08-17T12:48:09.721Z,28.46
2018-08-17T12:49:09.749Z,28.38
2018-08-17T12:50:09.784Z,27.69
2018-08-17T12:51:09.809Z,27.15
2018-08-17T12:52:09.867Z,26.86
2018-08-17T12:53:09.875Z,26.69
2018-08-17T12:54:09.905Z,26.87